Time;durP1;ratioP1;P1;durP2;ratioP2;P2;SDS_P1;SDS_P2;PMS_P1;PMS_P2;Temp;Humidity;BMP_temperature;BMP_pressure;BME280_temperature;BME280_humidity;BME280_pressure;Samples;Min_cycle;Max_cycle;Signal;HPM_P1;HPM_P2
2021/05/19 00:02:10;;;;;;;0.50;0.20;;;23.50;38.30;;;;;;5091684;28;20473;-64
2021/05/19 00:04:36;;;;;;;0.70;0.20;;;23.50;38.30;;;;;;5091447;28;20459;-64
2021/05/19 00:07:02;;;;;;;0.47;0.20;;;23.50;38.30;;;;;;5091865;28;20394;-64
2021/05/19 00:09:28;;;;;;;0.67;0.20;;;23.50;38.20;;;;;;5091581;28;20790;-65
2021/05/19 00:11:54;;;;;;;0.80;0.30;;;23.50;38.20;;;;;;5091948;28;20446;-63
2021/05/19 00:14:20;;;;;;;1.00;0.20;;;23.50;38.20;;;;;;5091891;28;20393;-65
2021/05/19 00:16:48;;;;;;;0.80;0.20;;;23.50;38.20;;;;;;5091906;28;20386;-64
2021/05/19 00:19:15;;;;;;;0.30;0.20;;;23.40;38.20;;;;;;5091652;28;20388;-64
2021/05/19 00:21:41;;;;;;;1.30;0.20;;;23.40;38.10;;;;;;5091989;28;20414;-65
2021/05/19 00:24:08;;;;;;;0.50;0.20;;;23.40;38.10;;;;;;5091794;28;20996;-64
2021/05/19 00:26:34;;;;;;;0.30;0.10;;;23.50;38.10;;;;;;5091581;28;20901;-64
2021/05/19 00:28:59;;;;;;;0.95;0.30;;;23.50;38.10;;;;;;5091733;28;20388;-64
2021/05/19 00:31:30;;;;;;;0.30;0.20;;;23.40;38.10;;;;;;5091292;28;20930;-65
2021/05/19 00:33:56;;;;;;;0.57;0.30;;;23.40;38.00;;;;;;5073606;28;20394;-64
2021/05/19 00:36:21;;;;;;;0.57;0.10;;;23.50;38.00;;;;;;5091706;28;20397;-64
2021/05/19 00:38:47;;;;;;;0.55;0.25;;;23.40;38.00;;;;;;5091601;28;20885;-64
2021/05/19 00:41:13;;;;;;;0.53;0.30;;;23.40;37.90;;;;;;5091512;28;20393;-64
2021/05/19 00:43:39;;;;;;;0.60;0.20;;;23.40;38.00;;;;;;5091273;28;20479;-64
2021/05/19 00:46:06;;;;;;;0.30;0.10;;;23.40;37.90;;;;;;5073430;28;20414;-64
2021/05/19 00:48:33;;;;;;;0.70;0.20;;;23.40;37.90;;;;;;5091547;28;20406;-64
2021/05/19 00:50:59;;;;;;;0.10;0.10;;;23.40;37.90;;;;;;5094608;28;20390;-65
2021/05/19 00:53:25;;;;;;;1.40;0.20;;;23.40;37.90;;;;;;5094880;28;20382;-63
2021/05/19 00:55:51;;;;;;;0.52;0.22;;;23.40;38.00;;;;;;5095452;28;20402;-64
2021/05/19 00:58:17;;;;;;;0.45;0.20;;;23.40;38.00;;;;;;5095536;28;20382;-65
2021/05/19 01:00:42;;;;;;;0.57;0.20;;;23.40;37.90;;;;;;5095501;28;20390;-63
2021/05/19 01:03:08;;;;;;;0.30;0.10;;;23.40;37.90;;;;;;5095275;28;20394;-64
2021/05/19 01:10:52;;;;;;;0.43;0.20;;;23.40;37.80;;;;;;5095342;28;20377;-65
2021/05/19 01:13:18;;;;;;;0.50;0.15;;;23.40;37.90;;;;;;5095082;28;20385;-65
2021/05/19 01:15:44;;;;;;;0.40;0.20;;;23.40;37.90;;;;;;5095257;28;20448;-65
2021/05/19 01:18:10;;;;;;;0.47;0.20;;;23.30;37.80;;;;;;5095115;28;20869;-65
2021/05/19 01:20:36;;;;;;;0.35;0.20;;;23.30;37.80;;;;;;5095383;28;20401;-65
2021/05/19 01:23:04;;;;;;;0.65;0.22;;;23.30;37.80;;;;;;5094973;28;20397;-64
2021/05/19 01:25:30;;;;;;;0.30;0.10;;;23.30;37.80;;;;;;5094173;28;20417;-64
2021/05/19 01:27:59;;;;;;;0.30;0.20;;;23.30;37.80;;;;;;5094643;28;20390;-65
2021/05/19 01:30:25;;;;;;;0.38;0.10;;;23.30;37.80;;;;;;5076772;28;20391;-64
2021/05/19 01:32:51;;;;;;;0.32;0.17;;;23.30;37.80;;;;;;5095103;28;20861;-65
2021/05/19 01:35:17;;;;;;;0.50;0.20;;;23.30;37.80;;;;;;5094670;28;20412;-64
2021/05/19 01:37:45;;;;;;;0.47;0.20;;;23.30;37.80;;;;;;5076420;28;20776;-64
2021/05/19 01:40:13;;;;;;;0.30;0.20;;;23.30;37.80;;;;;;5076524;28;20390;-65
2021/05/19 01:42:39;;;;;;;0.25;0.20;;;23.30;37.80;;;;;;5094772;28;20386;-64
2021/05/19 01:45:09;;;;;;;0.30;0.20;;;23.30;37.80;;;;;;5094348;28;20440;-64
2021/05/19 01:47:55;;;;;;;0.80;0.30;;;23.30;37.80;;;;;;5094022;28;20878;-65
2021/05/19 01:50:24;;;;;;;0.30;0.20;;;23.30;37.80;;;;;;5094525;28;20746;-64
2021/05/19 01:52:52;;;;;;;0.45;0.30;;;23.30;37.80;;;;;;5094579;28;20433;-64
2021/05/19 01:55:18;;;;;;;0.50;0.20;;;23.30;37.80;;;;;;5094395;28;20411;-65
2021/05/19 01:57:46;;;;;;;0.70;0.20;;;23.30;37.80;;;;;;5094230;28;20382;-64
2021/05/19 02:00:13;;;;;;;0.35;0.20;;;23.30;37.80;;;;;;5094210;28;20390;-64
2021/05/19 02:02:39;;;;;;;0.38;0.20;;;23.30;37.70;;;;;;5094198;28;20447;-64
2021/05/19 02:05:06;;;;;;;0.40;0.20;;;23.30;37.70;;;;;;5094344;28;20898;-65
2021/05/19 02:07:36;;;;;;;0.32;0.20;;;23.30;37.70;;;;;;5075599;28;20401;-65
2021/05/19 02:10:08;;;;;;;0.70;0.30;;;23.30;37.80;;;;;;5094428;28;20421;-64
2021/05/19 02:12:34;;;;;;;0.43;0.30;;;23.30;37.70;;;;;;5094341;28;20390;-65
2021/05/19 02:14:59;;;;;;;0.32;0.22;;;23.20;37.70;;;;;;5076099;28;20468;-65
2021/05/19 02:17:29;;;;;;;0.53;0.20;;;23.30;37.80;;;;;;5093623;28;20394;-64
2021/05/19 02:19:55;;;;;;;0.50;0.20;;;23.30;37.80;;;;;;5094040;28;20460;-64
2021/05/19 02:22:23;;;;;;;1.00;0.20;;;23.20;37.70;;;;;;5094112;28;20793;-64
2021/05/19 02:24:49;;;;;;;0.43;0.20;;;23.20;37.70;;;;;;5093886;28;20382;-65
2021/05/19 02:27:15;;;;;;;0.30;0.20;;;23.20;37.70;;;;;;5093704;28;20785;-65
2021/05/19 02:29:40;;;;;;;0.50;0.20;;;23.20;37.70;;;;;;5093266;28;20378;-65
2021/05/19 02:32:07;;;;;;;0.20;0.20;;;23.20;37.70;;;;;;5093791;28;20389;-65
2021/05/19 02:34:33;;;;;;;0.52;0.28;;;23.20;37.70;;;;;;5093985;28;20386;-65
2021/05/19 02:36:59;;;;;;;0.40;0.20;;;23.30;37.70;;;;;;5093765;28;20877;-64
2021/05/19 02:39:24;;;;;;;0.67;0.23;;;23.20;37.70;;;;;;5092674;28;20393;-64
2021/05/19 02:41:50;;;;;;;0.88;0.17;;;23.20;37.70;;;;;;5093202;28;20386;-64
2021/05/19 02:44:16;;;;;;;0.37;0.20;;;23.20;37.70;;;;;;5093469;28;20390;-64
2021/05/19 02:46:41;;;;;;;0.40;0.20;;;23.20;37.70;;;;;;5093319;28;20421;-65
2021/05/19 02:49:07;;;;;;;0.37;0.20;;;23.20;37.70;;;;;;5093474;28;20465;-65
2021/05/19 02:51:37;;;;;;;0.40;0.20;;;23.20;37.80;;;;;;5092862;28;20889;-64
2021/05/19 02:54:05;;;;;;;0.43;0.30;;;23.20;37.80;;;;;;5093296;28;20447;-65
2021/05/19 02:56:31;;;;;;;0.52;0.22;;;23.20;37.80;;;;;;5093462;28;20431;-65
2021/05/19 02:58:57;;;;;;;0.40;0.20;;;23.20;37.80;;;;;;5093360;28;20390;-65
2021/05/19 03:01:23;;;;;;;0.68;0.20;;;23.20;37.80;;;;;;5074954;28;20409;-65
2021/05/19 03:03:48;;;;;;;0.47;0.20;;;23.20;37.80;;;;;;5092789;28;20394;-65
2021/05/19 03:06:14;;;;;;;0.50;0.20;;;23.20;37.80;;;;;;5093122;28;20457;-64
2021/05/19 03:08:40;;;;;;;0.60;0.20;;;23.20;37.80;;;;;;5074940;28;20394;-64
2021/05/19 03:11:07;;;;;;;0.47;0.20;;;23.10;38.00;;;;;;5093175;28;20478;-64
2021/05/19 03:13:33;;;;;;;0.70;0.30;;;23.10;38.10;;;;;;5092180;28;20410;-64
2021/05/19 03:15:58;;;;;;;0.60;0.30;;;23.20;38.20;;;;;;5092987;28;20426;-64
2021/05/19 03:18:24;;;;;;;1.50;0.20;;;23.20;38.20;;;;;;5093116;28;20461;-64
2021/05/19 03:20:50;;;;;;;1.10;0.40;;;23.20;38.70;;;;;;5092725;28;20796;-63
2021/05/19 03:23:16;;;;;;;0.95;0.20;;;23.20;39.20;;;;;;5092441;28;20386;-64
2021/05/19 03:25:42;;;;;;;4.10;0.30;;;23.30;39.10;;;;;;5090669;28;20435;-64
2021/05/19 03:28:08;;;;;;;1.20;0.20;;;23.30;39.80;;;;;;5092546;28;20389;-64
2021/05/19 03:30:35;;;;;;;2.40;0.35;;;23.40;40.40;;;;;;5092341;28;20524;-64
2021/05/19 03:33:00;;;;;;;1.80;0.20;;;23.40;40.30;;;;;;5092597;28;20392;-63
2021/05/19 03:35:26;;;;;;;2.30;0.30;;;23.40;40.30;;;;;;5092072;28;20394;-61
2021/05/19 03:37:52;;;;;;;1.57;0.27;;;23.40;39.50;;;;;;5092273;28;20694;-63
2021/05/19 03:40:18;;;;;;;0.95;0.20;;;23.50;40.10;;;;;;5092478;28;20797;-64
2021/05/19 03:42:44;;;;;;;3.42;0.40;;;23.50;40.10;;;;;;5092395;28;20382;-63
2021/05/19 03:45:14;;;;;;;1.60;0.20;;;23.50;40.80;;;;;;5092321;28;20409;-64
2021/05/19 03:47:40;;;;;;;0.50;0.20;;;23.50;40.20;;;;;;5090679;28;20386;-63
2021/05/19 03:50:07;;;;;;;2.65;0.28;;;23.50;39.90;;;;;;5091653;28;20374;-65
2021/05/19 03:52:33;;;;;;;1.30;0.30;;;23.50;39.50;;;;;;5092059;28;20398;-64
2021/05/19 03:55:00;;;;;;;1.50;0.23;;;23.40;39.00;;;;;;5091564;28;20389;-65
2021/05/19 03:57:25;;;;;;;0.63;0.20;;;23.40;38.90;;;;;;5091595;28;20396;-64
2021/05/19 03:59:51;;;;;;;4.63;0.40;;;23.40;38.70;;;;;;5091702;28;20431;-65
2021/05/19 04:02:17;;;;;;;4.57;0.60;;;23.40;38.70;;;;;;5092055;28;20382;-65
2021/05/19 04:04:42;;;;;;;5.37;0.50;;;23.30;38.60;;;;;;5091776;28;20916;-64
2021/05/19 04:07:10;;;;;;;3.10;0.40;;;23.30;38.50;;;;;;5091745;28;20542;-64
2021/05/19 04:09:36;;;;;;;4.40;0.50;;;23.30;38.50;;;;;;5091386;28;20750;-64
2021/05/19 04:12:02;;;;;;;4.25;0.50;;;23.30;38.50;;;;;;5091898;28;20386;-65
2021/05/19 04:14:27;;;;;;;4.03;0.50;;;23.30;38.60;;;;;;5091954;28;20389;-64
2021/05/19 04:16:53;;;;;;;2.85;0.40;;;23.30;38.60;;;;;;5091763;28;20397;-65
2021/05/19 04:19:19;;;;;;;4.50;0.50;;;23.30;38.50;;;;;;5091883;28;20388;-63
2021/05/19 04:21:45;;;;;;;3.00;0.50;;;23.20;38.50;;;;;;5090460;28;20548;-65
2021/05/19 04:24:10;;;;;;;3.13;0.60;;;23.20;38.60;;;;;;5090834;28;20463;-65
2021/05/19 04:26:36;;;;;;;5.63;0.77;;;23.20;38.50;;;;;;5091543;28;20774;-65
2021/05/19 04:29:03;;;;;;;6.25;0.57;;;23.20;38.60;;;;;;5092152;28;20707;-64
2021/05/19 04:31:29;;;;;;;4.80;0.57;;;23.30;38.70;;;;;;5078327;28;20864;-64
2021/05/19 04:33:54;;;;;;;3.93;0.60;;;23.30;38.70;;;;;;5053356;28;20445;-64
2021/05/19 04:36:20;;;;;;;3.67;0.50;;;23.30;38.70;;;;;;5071424;28;20409;-64
2021/05/19 04:38:45;;;;;;;3.53;0.50;;;23.30;39.00;;;;;;5071330;28;20384;-64
2021/05/19 04:41:11;;;;;;;5.17;0.60;;;23.30;39.00;;;;;;5071379;28;20479;-65
2021/05/19 04:43:37;;;;;;;6.20;0.52;;;23.30;39.00;;;;;;5052863;28;20431;-65
2021/05/19 04:46:03;;;;;;;5.60;0.60;;;23.30;39.00;;;;;;5053187;28;20419;-65
2021/05/19 04:48:29;;;;;;;4.97;0.50;;;23.20;39.00;;;;;;5053096;28;20445;-65
2021/05/19 04:50:55;;;;;;;5.20;0.40;;;23.20;39.00;;;;;;5070626;28;20414;-65
2021/05/19 04:53:21;;;;;;;2.33;0.65;;;23.20;39.10;;;;;;5071204;28;20860;-64
2021/05/19 04:55:47;;;;;;;5.10;0.50;;;23.20;39.00;;;;;;5070645;28;20400;-64
2021/05/19 04:58:12;;;;;;;3.30;0.70;;;23.20;38.80;;;;;;5071484;28;20419;-62
2021/05/19 05:00:38;;;;;;;2.40;0.50;;;23.20;38.60;;;;;;5071291;28;20391;-64
2021/05/19 05:03:05;;;;;;;2.42;0.50;;;23.20;38.50;;;;;;5071042;28;20396;-63
2021/05/19 05:05:32;;;;;;;2.90;0.40;;;23.20;38.50;;;;;;5070933;28;20434;-64
2021/05/19 05:07:57;;;;;;;1.95;0.43;;;23.20;38.30;;;;;;5071066;28;20427;-65
2021/05/19 05:10:23;;;;;;;4.07;0.60;;;23.20;38.30;;;;;;5070814;28;20811;-64
2021/05/19 05:12:49;;;;;;;3.70;0.45;;;23.20;38.20;;;;;;5071172;28;20921;-65
2021/05/19 05:15:17;;;;;;;2.10;0.50;;;23.20;38.20;;;;;;5071289;28;20383;-64
2021/05/19 05:17:44;;;;;;;1.60;0.40;;;23.20;38.20;;;;;;5070511;28;20387;-64
2021/05/19 05:20:10;;;;;;;2.15;0.50;;;23.20;38.20;;;;;;5071073;28;20380;-65
2021/05/19 05:22:37;;;;;;;2.92;0.45;;;23.20;38.10;;;;;;5071072;28;20468;-65
2021/05/19 05:25:05;;;;;;;1.38;0.50;;;23.20;38.10;;;;;;5070116;28;20396;-62
2021/05/19 05:27:30;;;;;;;1.65;0.50;;;23.20;38.10;;;;;;5070830;28;20384;-64
2021/05/19 05:29:56;;;;;;;1.80;0.40;;;23.20;38.10;;;;;;5070636;28;20376;-64
2021/05/19 05:32:22;;;;;;;1.30;0.40;;;23.20;38.10;;;;;;5070988;28;20899;-64
2021/05/19 05:34:48;;;;;;;1.85;0.40;;;23.20;38.10;;;;;;5070939;28;20744;-65
2021/05/19 05:37:14;;;;;;;0.98;0.38;;;23.20;38.10;;;;;;5073950;28;20384;-65
2021/05/19 05:39:39;;;;;;;2.10;0.40;;;23.10;38.00;;;;;;5074144;28;20387;-64
2021/05/19 05:42:05;;;;;;;1.45;0.43;;;23.20;38.10;;;;;;5074602;28;20870;-64
2021/05/19 05:44:31;;;;;;;1.15;0.40;;;23.20;38.10;;;;;;5074571;28;20950;-65
2021/05/19 05:46:56;;;;;;;0.83;0.40;;;23.20;38.00;;;;;;5074358;28;20772;-65
2021/05/19 05:49:22;;;;;;;1.90;0.30;;;23.20;38.00;;;;;;5074420;28;20449;-65
2021/05/19 05:51:48;;;;;;;1.67;0.50;;;23.20;38.60;;;;;;5074129;28;20429;-65
2021/05/19 05:54:13;;;;;;;0.95;0.40;;;23.20;37.90;;;;;;5074372;28;20394;-65
2021/05/19 05:56:41;;;;;;;0.63;0.33;;;23.20;38.00;;;;;;5056276;28;20392;-64
2021/05/19 05:59:07;;;;;;;1.80;0.40;;;23.20;38.00;;;;;;5074307;28;20394;-65
2021/05/19 06:01:33;;;;;;;1.00;0.30;;;23.20;38.00;;;;;;5074050;28;20424;-65
2021/05/19 06:03:59;;;;;;;1.40;0.35;;;23.10;37.90;;;;;;5073903;28;20912;-65
2021/05/19 06:06:25;;;;;;;1.30;0.50;;;23.20;38.00;;;;;;5074074;28;20767;-66
2021/05/19 06:08:50;;;;;;;1.17;0.40;;;23.20;38.00;;;;;;5074060;28;20778;-64
2021/05/19 06:11:16;;;;;;;1.25;0.30;;;23.20;38.00;;;;;;5074325;28;20770;-64
2021/05/19 06:13:42;;;;;;;1.60;0.43;;;23.10;37.90;;;;;;5073437;28;20380;-64
2021/05/19 06:16:08;;;;;;;0.80;0.40;;;23.20;38.00;;;;;;5073999;28;20432;-64
2021/05/19 06:18:33;;;;;;;1.15;0.40;;;23.20;38.00;;;;;;5074146;28;20395;-65
2021/05/19 06:20:59;;;;;;;1.13;0.30;;;23.10;38.00;;;;;;5073901;28;20383;-64
2021/05/19 06:23:24;;;;;;;0.90;0.30;;;23.10;37.90;;;;;;5055862;28;20395;-64
2021/05/19 06:25:50;;;;;;;0.80;0.30;;;23.10;37.90;;;;;;5055266;28;20510;-65
2021/05/19 06:28:16;;;;;;;1.13;0.40;;;23.10;37.90;;;;;;5073820;28;20392;-65
2021/05/19 06:30:41;;;;;;;0.70;0.30;;;23.10;37.90;;;;;;5073725;28;20372;-64
2021/05/19 06:33:07;;;;;;;1.80;0.40;;;23.10;37.80;;;;;;5073626;28;20379;-64
2021/05/19 06:35:33;;;;;;;0.50;0.30;;;23.10;37.90;;;;;;5073362;28;20388;-63
2021/05/19 06:37:58;;;;;;;1.42;0.40;;;23.10;37.80;;;;;;5073309;28;20445;-64
2021/05/19 06:40:24;;;;;;;0.73;0.30;;;23.10;37.80;;;;;;5073506;28;20376;-64
2021/05/19 06:42:50;;;;;;;1.60;0.60;;;23.10;37.80;;;;;;5055414;28;20739;-63
2021/05/19 06:45:16;;;;;;;0.85;0.40;;;23.20;37.80;;;;;;5073483;28;20411;-64
2021/05/19 06:47:42;;;;;;;1.52;0.40;;;23.20;37.80;;;;;;5072103;28;20388;-63
2021/05/19 06:50:08;;;;;;;0.85;0.32;;;23.20;37.90;;;;;;5073291;28;20375;-64
2021/05/19 06:52:34;;;;;;;1.20;0.32;;;23.10;37.80;;;;;;5073391;28;20383;-63
2021/05/19 06:55:01;;;;;;;0.50;0.22;;;23.20;37.80;;;;;;5055454;28;20423;-64
2021/05/19 06:57:27;;;;;;;1.08;0.30;;;23.20;37.70;;;;;;5073174;28;20392;-64
2021/05/19 06:59:53;;;;;;;1.40;0.40;;;23.20;37.70;;;;;;5072758;28;20756;-63
2021/05/19 07:02:19;;;;;;;0.93;0.30;;;23.20;37.80;;;;;;5071256;28;20424;-64
2021/05/19 07:04:44;;;;;;;0.90;0.30;;;23.20;37.70;;;;;;5072418;28;20461;-63
2021/05/19 07:07:10;;;;;;;1.00;0.50;;;23.20;37.70;;;;;;5072891;28;20411;-63
2021/05/19 07:09:36;;;;;;;0.70;0.40;;;23.20;37.70;;;;;;5072686;28;20392;-63
2021/05/19 07:12:03;;;;;;;0.93;0.32;;;23.20;37.70;;;;;;5072797;28;20387;-64
2021/05/19 07:14:28;;;;;;;0.70;0.25;;;23.20;37.70;;;;;;5073140;28;20380;-64
2021/05/19 07:16:55;;;;;;;0.60;0.30;;;23.20;37.70;;;;;;5072812;28;20855;-64
2021/05/19 07:19:22;;;;;;;1.03;0.30;;;23.20;37.70;;;;;;5072777;28;20792;-64
2021/05/19 07:21:48;;;;;;;0.80;0.30;;;23.20;37.60;;;;;;5072509;28;20383;-63
2021/05/19 07:24:15;;;;;;;0.68;0.30;;;23.20;37.60;;;;;;5072635;28;20379;-64
2021/05/19 07:26:42;;;;;;;0.50;0.30;;;23.30;37.60;;;;;;5072643;28;20420;-64
2021/05/19 07:29:10;;;;;;;0.47;0.30;;;23.20;37.60;;;;;;5054667;28;20804;-64
2021/05/19 07:31:36;;;;;;;0.60;0.30;;;23.20;37.60;;;;;;5072415;28;20407;-61
2021/05/19 07:34:03;;;;;;;1.48;0.30;;;23.30;37.60;;;;;;5072220;28;20380;-63
2021/05/19 07:36:29;;;;;;;0.82;0.30;;;23.20;37.60;;;;;;5072439;28;20388;-64
2021/05/19 07:38:55;;;;;;;0.65;0.30;;;23.20;37.60;;;;;;5072332;28;20390;-63
2021/05/19 07:41:22;;;;;;;0.47;0.30;;;23.20;37.60;;;;;;5072191;28;20478;-64
2021/05/19 07:43:48;;;;;;;0.65;0.28;;;23.20;37.60;;;;;;5080064;28;20387;-64
2021/05/19 07:46:13;;;;;;;0.85;0.30;;;23.20;37.60;;;;;;5085730;28;20508;-64
2021/05/19 07:48:39;;;;;;;0.70;0.30;;;23.20;37.60;;;;;;5092498;28;20793;-64
2021/05/19 07:51:05;;;;;;;0.40;0.20;;;23.20;37.60;;;;;;5092445;28;20385;-64
2021/05/19 07:53:31;;;;;;;0.60;0.30;;;23.20;37.60;;;;;;5092347;28;20385;-65
2021/05/19 07:56:02;;;;;;;0.85;0.50;;;23.20;37.60;;;;;;5091805;28;20732;-65
2021/05/19 07:58:41;;;;;;;0.50;0.30;;;23.20;37.60;;;;;;5092079;28;20382;-64
2021/05/19 08:01:12;;;;;;;0.60;0.30;;;23.20;37.60;;;;;;5092279;28;20456;-65
2021/05/19 08:03:38;;;;;;;0.40;0.30;;;23.20;37.60;;;;;;5091861;28;20425;-63
2021/05/19 08:06:04;;;;;;;0.90;0.30;;;23.20;37.50;;;;;;5073670;28;20523;-64
2021/05/19 08:08:30;;;;;;;4.13;0.70;;;23.20;37.60;;;;;;5092161;28;20413;-64
2021/05/19 08:10:55;;;;;;;1.10;0.40;;;23.10;37.70;;;;;;5092017;28;20882;-64
2021/05/19 08:13:21;;;;;;;1.63;0.40;;;23.10;37.90;;;;;;5092196;28;20378;-63
2021/05/19 08:15:47;;;;;;;1.73;0.43;;;23.10;37.90;;;;;;5073290;28;20965;-64
2021/05/19 08:18:13;;;;;;;1.00;0.38;;;23.10;38.00;;;;;;5092025;28;20381;-64
2021/05/19 08:20:39;;;;;;;0.90;0.40;;;23.10;38.10;;;;;;5091940;28;20393;-64
2021/05/19 08:23:06;;;;;;;0.85;0.40;;;23.10;38.10;;;;;;5091974;28;20474;-64
2021/05/19 08:25:32;;;;;;;1.17;0.40;;;23.10;38.00;;;;;;5091744;28;20950;-64
2021/05/19 08:27:58;;;;;;;0.95;0.40;;;23.10;38.10;;;;;;5073125;28;20438;-64
2021/05/19 08:30:24;;;;;;;0.80;0.40;;;23.10;38.00;;;;;;5091786;28;20470;-63
2021/05/19 08:32:51;;;;;;;0.85;0.40;;;23.10;38.00;;;;;;5091654;28;20389;-64
2021/05/19 08:35:17;;;;;;;0.70;0.40;;;23.10;38.00;;;;;;5091902;28;20385;-63
2021/05/19 08:37:43;;;;;;;1.10;0.30;;;23.10;38.00;;;;;;5073350;28;20391;-64
2021/05/19 08:40:09;;;;;;;1.00;0.40;;;23.10;38.00;;;;;;5073338;28;20887;-64
2021/05/19 08:42:38;;;;;;;0.75;0.47;;;23.10;37.90;;;;;;5091662;28;20393;-64
2021/05/19 08:45:07;;;;;;;0.93;0.40;;;23.10;37.90;;;;;;5091541;28;20386;-62
2021/05/19 08:47:32;;;;;;;2.20;0.50;;;23.10;38.10;;;;;;5071689;28;20407;-63
2021/05/19 08:50:00;;;;;;;0.90;0.70;;;23.10;38.20;;;;;;5070867;28;20742;-64
2021/05/19 08:52:26;;;;;;;1.70;0.47;;;23.10;38.20;;;;;;5071352;28;20396;-64
2021/05/19 08:54:54;;;;;;;1.27;0.45;;;23.20;38.20;;;;;;5071318;28;20384;-63
2021/05/19 08:57:21;;;;;;;1.52;0.50;;;23.20;38.20;;;;;;5053319;28;20383;-61
2021/05/19 08:59:47;;;;;;;1.40;0.40;;;23.20;38.20;;;;;;5070731;28;20861;-63
2021/05/19 09:02:15;;;;;;;1.80;0.40;;;23.20;38.20;;;;;;5073260;28;20482;-63
2021/05/19 09:04:56;;;;;;;0.88;0.43;;;23.20;38.10;;;;;;5061670;28;20423;-62
2021/05/19 09:07:24;;;;;;;1.15;0.50;;;23.20;38.10;;;;;;5060684;28;20470;-62
2021/05/19 09:09:50;;;;;;;1.77;0.40;;;23.20;38.00;;;;;;5056300;28;20381;-63
2021/05/19 09:12:16;;;;;;;1.23;0.50;;;23.20;38.00;;;;;;5065205;28;20751;-65
2021/05/19 09:15:00;;;;;;;1.23;0.50;;;23.20;38.10;;;;;;5075158;28;20387;-65
2021/05/19 09:17:32;;;;;;;0.90;0.45;;;23.20;38.00;;;;;;5075375;28;20402;-63
2021/05/19 09:19:59;;;;;;;0.60;0.30;;;23.20;38.00;;;;;;5074324;28;20419;-63
2021/05/19 09:22:32;;;;;;;1.02;0.40;;;23.30;38.10;;;;;;5074728;28;20402;-64
2021/05/19 09:24:58;;;;;;;0.82;0.40;;;23.20;38.00;;;;;;5074484;28;20471;-64
2021/05/19 09:27:24;;;;;;;0.80;0.38;;;23.20;38.10;;;;;;5074548;28;20398;-64
2021/05/19 09:29:52;;;;;;;1.00;0.50;;;23.20;38.00;;;;;;5072567;28;20395;-65
2021/05/19 09:32:20;;;;;;;0.70;0.40;;;23.20;38.00;;;;;;5074545;28;20391;-65
2021/05/19 09:34:52;;;;;;;0.80;0.40;;;23.20;38.00;;;;;;5074437;28;20380;-64
2021/05/19 09:37:30;;;;;;;0.65;0.40;;;23.20;38.00;;;;;;5074357;28;20387;-65
2021/05/19 09:40:12;;;;;;;0.70;0.40;;;23.20;38.00;;;;;;5073939;28;20399;-64
2021/05/19 09:42:48;;;;;;;0.77;0.40;;;23.20;38.00;;;;;;5074365;28;20469;-64
2021/05/19 09:45:32;;;;;;;1.20;0.40;;;23.20;38.00;;;;;;5074280;28;20422;-64
2021/05/19 09:47:59;;;;;;;0.70;0.40;;;23.20;38.00;;;;;;5073666;28;20398;-64
2021/05/19 09:50:34;;;;;;;1.00;0.43;;;23.30;38.00;;;;;;5074159;28;20466;-64
2021/05/19 09:53:14;;;;;;;1.25;0.45;;;23.30;38.00;;;;;;5074104;28;20444;-65
2021/05/19 09:55:52;;;;;;;0.75;0.50;;;23.20;37.90;;;;;;5074084;28;20408;-64
2021/05/19 09:58:31;;;;;;;1.00;0.40;;;23.20;38.10;;;;;;5072750;28;20402;-63
2021/05/19 10:00:57;;;;;;;0.60;0.35;;;23.10;38.10;;;;;;5073939;28;20380;-64
2021/05/19 10:03:23;;;;;;;1.00;0.47;;;23.10;38.10;;;;;;5073829;28;20407;-64
2021/05/19 10:08:29;;;;;;;0.57;0.32;;;23.20;38.00;;;;;;5074093;28;20437;-64
2021/05/19 10:11:04;;;;;;;0.50;0.40;;;23.20;38.00;;;;;;5073667;28;20388;-63
2021/05/19 10:13:31;;;;;;;0.57;0.30;;;23.20;37.90;;;;;;5073856;28;20384;-63
2021/05/19 10:15:59;;;;;;;0.50;0.30;;;23.30;37.90;;;;;;5073205;28;20475;-63
2021/05/19 10:18:29;;;;;;;0.68;0.30;;;23.30;37.90;;;;;;5073659;28;20747;-64
2021/05/19 10:20:56;;;;;;;0.80;0.30;;;23.30;37.90;;;;;;5073578;28;20471;-64
2021/05/19 10:23:35;;;;;;;0.57;0.35;;;23.30;37.90;;;;;;5073553;28;20376;-64
2021/05/19 10:26:12;;;;;;;1.02;0.38;;;23.30;37.80;;;;;;5073080;28;20469;-65
2021/05/19 10:28:47;;;;;;;0.65;0.30;;;23.30;37.80;;;;;;5073768;28;20384;-65
2021/05/19 10:31:41;;;;;;;1.23;0.40;;;23.30;37.80;;;;;;5073790;28;20891;-65
2021/05/19 10:34:07;;;;;;;0.57;0.30;;;23.30;37.80;;;;;;5073275;28;20403;-65
2021/05/19 10:36:42;;;;;;;0.75;0.43;;;23.30;37.80;;;;;;5073542;28;20421;-64
2021/05/19 10:39:08;;;;;;;0.83;0.37;;;23.20;37.80;;;;;;5073554;28;20451;-65
2021/05/19 10:41:38;;;;;;;0.52;0.28;;;23.30;37.90;;;;;;5073713;28;20388;-65
2021/05/19 10:44:07;;;;;;;1.05;0.40;;;23.20;37.90;;;;;;5073134;28;20388;-63
2021/05/19 10:46:54;;;;;;;1.25;0.40;;;23.20;37.90;;;;;;5073152;28;20424;-64
2021/05/19 10:49:20;;;;;;;0.80;0.38;;;23.20;37.90;;;;;;5071938;28;20395;-65
2021/05/19 10:52:18;;;;;;;0.60;0.30;;;23.20;37.90;;;;;;5071989;28;20755;-64
2021/05/19 10:57:46;;;;;;;0.60;0.50;;;23.30;37.80;;;;;;5073148;28;20449;-64
2021/05/19 11:00:22;;;;;;;0.80;0.40;;;23.20;37.80;;;;;;5072745;28;20420;-65
2021/05/19 11:02:54;;;;;;;1.60;0.52;;;23.30;37.90;;;;;;5072961;28;20982;-64
2021/05/19 11:05:28;;;;;;;0.82;0.35;;;23.30;37.90;;;;;;5072946;28;20741;-65
2021/05/19 11:08:06;;;;;;;0.77;0.38;;;23.20;37.80;;;;;;5072483;28;20461;-61
2021/05/19 11:10:45;;;;;;;0.60;0.30;;;23.30;37.90;;;;;;5072855;28;20391;-64
2021/05/19 11:13:11;;;;;;;0.60;0.30;;;23.30;37.70;;;;;;5072929;28;20392;-65
2021/05/19 11:15:38;;;;;;;0.50;0.30;;;23.30;37.60;;;;;;5072646;28;20384;-64
2021/05/19 11:18:31;;;;;;;0.82;0.40;;;23.30;37.70;;;;;;5072551;28;20408;-65
2021/05/19 11:21:03;;;;;;;1.25;0.38;;;23.30;37.70;;;;;;5072771;28;20392;-65
2021/05/19 11:23:29;;;;;;;0.95;0.25;;;23.30;37.70;;;;;;5072733;28;20426;-64
2021/05/19 11:26:33;;;;;;;0.68;0.30;;;23.40;37.70;;;;;;5071859;28;20400;-61
2021/05/19 11:29:00;;;;;;;0.55;0.30;;;23.30;37.70;;;;;;5031873;28;20400;-64
2021/05/19 11:31:33;;;;;;;0.60;0.30;;;23.30;37.70;;;;;;5072570;28;20392;-63
2021/05/19 11:34:02;;;;;;;0.63;0.30;;;23.40;37.70;;;;;;5071574;28;20429;-64
2021/05/19 11:36:42;;;;;;;0.60;0.30;;;23.30;37.70;;;;;;5072353;28;20384;-65
2021/05/19 11:39:34;;;;;;;0.90;0.70;;;23.40;37.70;;;;;;5072309;28;20419;-65
2021/05/19 11:42:16;;;;;;;0.70;0.30;;;23.40;37.70;;;;;;5071900;28;20891;-65
2021/05/19 11:44:55;;;;;;;0.90;0.40;;;23.30;37.70;;;;;;5072232;28;20748;-65
2021/05/19 11:47:37;;;;;;;0.70;0.40;;;23.40;37.70;;;;;;5072264;28;20423;-64
2021/05/19 11:50:20;;;;;;;0.80;0.38;;;23.30;37.70;;;;;;5071751;28;20391;-64
2021/05/19 11:52:50;;;;;;;0.60;0.30;;;23.30;37.70;;;;;;5072028;28;20949;-64
2021/05/19 11:55:34;;;;;;;1.00;0.32;;;23.40;37.70;;;;;;5070947;28;20978;-65
2021/05/19 11:58:14;;;;;;;0.50;0.30;;;23.40;37.70;;;;;;5071424;28;20530;-65
2021/05/19 12:00:46;;;;;;;0.40;0.30;;;23.40;37.70;;;;;;5072019;28;20392;-62
2021/05/19 12:03:13;;;;;;;0.40;0.30;;;23.40;37.70;;;;;;5071837;28;20407;-64
2021/05/19 12:05:50;;;;;;;0.60;0.30;;;23.40;37.70;;;;;;5070450;28;20416;-65
2021/05/19 12:08:22;;;;;;;0.55;0.32;;;23.40;37.70;;;;;;5071534;28;20375;-65
2021/05/19 12:11:01;;;;;;;0.55;0.40;;;23.40;37.70;;;;;;5071660;28;20398;-65
2021/05/19 12:13:28;;;;;;;0.55;0.30;;;23.40;37.60;;;;;;5071707;28;20441;-65
2021/05/19 12:15:54;;;;;;;0.40;0.20;;;23.40;37.60;;;;;;5053530;28;20387;-65
2021/05/19 12:18:20;;;;;;;0.63;0.30;;;23.40;37.60;;;;;;5053620;28;20395;-64
2021/05/19 12:20:49;;;;;;;0.50;0.30;;;23.40;37.70;;;;;;5071832;28;20400;-65
2021/05/19 12:23:15;;;;;;;0.70;0.30;;;23.30;37.60;;;;;;5071658;28;20392;-63
2021/05/19 12:25:45;;;;;;;0.57;0.30;;;23.40;37.70;;;;;;5071543;28;20432;-65
2021/05/19 12:28:24;;;;;;;0.40;0.25;;;23.40;37.60;;;;;;5071184;28;20398;-64
2021/05/19 12:30:53;;;;;;;0.70;0.30;;;23.50;37.60;;;;;;5071721;28;20372;-64
2021/05/19 12:33:25;;;;;;;0.47;0.22;;;23.40;37.50;;;;;;5071577;28;20395;-65
2021/05/19 12:35:52;;;;;;;0.65;0.30;;;23.40;37.60;;;;;;5071516;28;20995;-64
2021/05/19 12:38:24;;;;;;;0.53;0.30;;;23.50;37.50;;;;;;5071096;28;20499;-65
2021/05/19 12:40:50;;;;;;;0.30;0.20;;;23.50;37.50;;;;;;5071441;28;20412;-65
2021/05/19 12:43:29;;;;;;;0.40;0.28;;;23.50;37.40;;;;;;5071593;28;20438;-65
2021/05/19 12:46:09;;;;;;;0.30;0.20;;;23.50;37.40;;;;;;5070138;28;20894;-64
2021/05/19 12:48:39;;;;;;;0.90;0.30;;;23.50;37.30;;;;;;5071331;28;20405;-65
2021/05/19 12:51:05;;;;;;;0.40;0.25;;;23.50;37.40;;;;;;5071522;28;20898;-65
2021/05/19 12:53:43;;;;;;;0.20;0.20;;;23.60;37.30;;;;;;5071521;28;20406;-65
2021/05/19 12:56:12;;;;;;;0.50;0.30;;;23.60;37.50;;;;;;5070964;28;20491;-66
2021/05/19 12:58:56;;;;;;;0.50;0.30;;;23.50;37.30;;;;;;5071399;28;20391;-65
2021/05/19 13:01:23;;;;;;;0.38;0.30;;;23.60;37.40;;;;;;5071326;28;20409;-65
2021/05/19 13:03:49;;;;;;;0.70;0.30;;;23.60;37.30;;;;;;5070994;28;20461;-64
2021/05/19 13:06:15;;;;;;;3.50;0.43;;;23.60;37.40;;;;;;5070641;28;20477;-65